createdAt,value
2023-01-30T00:01:45.611Z,8.88
2023-01-30T00:04:16.105Z,8.40
2023-01-30T00:06:44.542Z,9.75
2023-01-30T00:09:15.163Z,10.75
2023-01-30T00:11:42.686Z,7.88
2023-01-30T00:14:09.899Z,10.82
2023-01-30T00:16:36.926Z,9.82
2023-01-30T00:19:04.119Z,10.07
2023-01-30T00:21:31.212Z,6.57
2023-01-30T00:23:59.904Z,6.63
2023-01-30T00:26:27.389Z,7.07
2023-01-30T00:28:54.351Z,9.07
2023-01-30T00:31:21.371Z,6.97
2023-01-30T00:33:50.516Z,6.40
2023-01-30T00:36:17.479Z,6.18
2023-01-30T00:38:44.506Z,7.78
2023-01-30T00:41:13.667Z,10.05
2023-01-30T00:44:00.119Z,8.05
2023-01-30T00:46:51.006Z,8.48
2023-01-30T00:49:18.784Z,7.82
2023-01-30T00:51:45.950Z,8.23
2023-01-30T00:54:13.478Z,9.52
2023-01-30T00:56:40.414Z,10.38
2023-01-30T00:59:07.540Z,10.52
2023-01-30T01:01:34.585Z,8.13
2023-01-30T01:04:01.962Z,8.85
2023-01-30T01:06:28.990Z,8.00
2023-01-30T01:08:56.716Z,8.10
2023-01-30T01:11:24.576Z,9.70
2023-01-30T01:13:56.803Z,9.55
2023-01-30T01:16:24.590Z,8.90
2023-01-30T01:18:52.325Z,9.73
2023-01-30T01:21:20.412Z,7.15
2023-01-30T01:23:56.149Z,8.88
2023-01-30T01:26:23.841Z,9.73
2023-01-30T01:28:57.950Z,9.95
2023-01-30T01:31:25.922Z,6.90
2023-01-30T01:33:55.188Z,7.45
2023-01-30T01:36:53.283Z,5.63
2023-01-30T01:39:10.088Z,8.25
2023-01-30T01:41:37.135Z,9.52
2023-01-30T01:44:08.375Z,9.48
2023-01-30T01:46:43.633Z,8.57
2023-01-30T01:49:24.642Z,7.80
2023-01-30T01:52:04.079Z,8.05
2023-01-30T01:54:43.770Z,8.20
2023-01-30T01:57:26.890Z,9.02
2023-01-30T02:00:11.633Z,8.65
2023-01-30T02:02:45.230Z,9.60
2023-01-30T02:05:15.179Z,8.93
2023-01-30T02:08:08.220Z,6.88
2023-01-30T02:11:00.761Z,8.27
2023-01-30T02:13:28.500Z,8.65
2023-01-30T02:16:00.935Z,8.88
2023-01-30T02:18:31.030Z,7.45
2023-01-30T02:21:40.725Z,7.53
2023-01-30T02:24:25.878Z,7.78
2023-01-30T02:27:00.906Z,8.27
2023-01-30T02:29:36.913Z,8.32
2023-01-30T02:32:25.269Z,8.65
2023-01-30T02:35:15.842Z,7.85
2023-01-30T02:37:59.632Z,7.10
2023-01-30T02:40:53.914Z,7.75
2023-01-30T02:43:27.617Z,7.35
2023-01-30T02:46:15.640Z,7.63
2023-01-30T02:48:57.903Z,5.25
2023-01-30T02:51:30.581Z,6.45
2023-01-30T02:53:59.233Z,8.50
2023-01-30T02:56:26.628Z,7.07
2023-01-30T02:59:02.424Z,6.43
2023-01-30T03:01:31.833Z,8.68
2023-01-30T03:04:27.666Z,5.13
2023-01-30T03:07:15.686Z,6.63
2023-01-30T03:10:12.126Z,6.13
2023-01-30T03:12:53.741Z,6.32
2023-01-30T03:15:34.524Z,6.70
2023-01-30T03:18:02.606Z,6.60
2023-01-30T03:20:30.627Z,7.45
2023-01-30T03:22:57.618Z,6.00
2023-01-30T03:25:27.023Z,6.03
2023-01-30T03:27:55.683Z,6.88
2023-01-30T03:30:25.779Z,5.25
2023-01-30T03:32:59.847Z,6.18
2023-01-30T03:35:27.150Z,6.18
2023-01-30T03:37:54.249Z,5.30
2023-01-30T03:40:21.384Z,7.13
2023-01-30T03:42:49.162Z,6.53
2023-01-30T03:45:17.183Z,6.85
2023-01-30T03:47:46.534Z,5.50
2023-01-30T03:50:14.070Z,6.47
2023-01-30T03:52:41.011Z,6.65
2023-01-30T03:55:11.945Z,7.03
2023-01-30T03:57:39.185Z,6.70
2023-01-30T04:00:07.413Z,6.63
2023-01-30T04:02:43.125Z,5.85
2023-01-30T04:05:13.094Z,7.10
2023-01-30T04:07:44.343Z,6.82
2023-01-30T04:10:11.716Z,6.40
2023-01-30T04:12:39.105Z,6.18
2023-01-30T04:15:06.960Z,6.10
2023-01-30T04:17:48.385Z,6.00
2023-01-30T04:20:15.797Z,7.15
2023-01-30T04:22:48.386Z,6.00
2023-01-30T04:25:16.997Z,5.95
2023-01-30T04:27:44.657Z,5.85
2023-01-30T04:30:28.173Z,5.60
2023-01-30T04:33:08.990Z,4.85
2023-01-30T04:35:36.013Z,6.00
2023-01-30T04:38:03.271Z,6.18
2023-01-30T04:40:30.353Z,6.35
2023-01-30T04:42:57.437Z,5.38
2023-01-30T04:45:44.059Z,5.47
2023-01-30T04:48:11.954Z,6.30
2023-01-30T04:50:41.550Z,5.85
2023-01-30T04:53:09.514Z,6.22
2023-01-30T04:55:37.169Z,6.35
2023-01-30T04:58:04.735Z,5.78
2023-01-30T05:00:31.899Z,6.20
2023-01-30T05:03:01.337Z,5.00
2023-01-30T05:05:28.470Z,5.03
2023-01-30T05:07:55.496Z,5.28
2023-01-30T05:10:22.738Z,4.70
2023-01-30T05:12:49.816Z,4.85
2023-01-30T05:15:17.248Z,5.07
2023-01-30T05:17:44.822Z,4.35
2023-01-30T05:20:13.842Z,4.50
2023-01-30T05:22:40.865Z,4.00
2023-01-30T05:25:08.336Z,4.18
2023-01-30T05:27:35.360Z,4.28
2023-01-30T05:30:02.521Z,3.75
2023-01-30T05:32:31.110Z,3.35
2023-01-30T05:34:58.052Z,3.60
2023-01-30T05:37:25.253Z,3.33
2023-01-30T05:39:52.300Z,3.53
2023-01-30T05:42:19.260Z,3.33
2023-01-30T05:44:46.398Z,3.67
2023-01-30T05:47:13.390Z,3.45
2023-01-30T05:49:40.383Z,3.38
2023-01-30T05:52:07.322Z,3.50
2023-01-30T05:54:35.354Z,2.97
2023-01-30T05:57:02.357Z,3.10
2023-01-30T05:59:29.312Z,3.70
2023-01-30T06:01:56.290Z,4.07
2023-01-30T06:04:23.332Z,3.50
2023-01-30T06:06:50.951Z,2.85
2023-01-30T06:09:18.096Z,3.47
2023-01-30T06:11:45.074Z,2.92
2023-01-30T06:14:12.008Z,2.30
2023-01-30T06:16:39.096Z,3.30
2023-01-30T06:19:06.364Z,3.38
2023-01-30T06:21:33.303Z,3.33
2023-01-30T06:24:00.372Z,4.05
2023-01-30T06:26:27.389Z,2.75
2023-01-30T06:28:54.510Z,3.28
2023-01-30T06:31:23.748Z,3.08
2023-01-30T06:33:50.781Z,3.70
2023-01-30T06:36:17.747Z,3.58
2023-01-30T06:38:44.744Z,4.05
2023-01-30T06:41:11.707Z,4.25
2023-01-30T06:43:38.712Z,3.97
2023-01-30T06:46:06.122Z,3.78
2023-01-30T06:48:33.151Z,3.35
2023-01-30T06:51:00.124Z,3.40
2023-01-30T06:53:30.556Z,3.42
2023-01-30T06:56:01.977Z,3.50
2023-01-30T06:58:29.126Z,3.40
2023-01-30T07:00:56.519Z,3.75
2023-01-30T07:03:23.850Z,4.82
2023-01-30T07:05:50.945Z,4.95
2023-01-30T07:08:18.020Z,3.20
2023-01-30T07:10:45.544Z,3.25
2023-01-30T07:13:12.862Z,3.03
2023-01-30T07:15:39.795Z,4.15
2023-01-30T07:18:06.772Z,3.40
2023-01-30T07:20:34.054Z,3.38
2023-01-30T07:23:01.151Z,3.72
2023-01-30T07:25:28.888Z,3.22
2023-01-30T07:27:58.819Z,3.03
2023-01-30T07:30:27.537Z,3.47
2023-01-30T07:32:57.680Z,3.28
2023-01-30T07:35:27.137Z,3.13
2023-01-30T07:37:54.301Z,3.28
2023-01-30T07:40:22.248Z,3.25
2023-01-30T07:43:00.767Z,3.83
2023-01-30T07:45:31.369Z,3.83
2023-01-30T07:47:58.386Z,2.88
2023-01-30T07:50:25.344Z,3.83
2023-01-30T07:52:52.361Z,2.78
2023-01-30T07:55:19.768Z,2.90
2023-01-30T07:57:46.992Z,3.22
2023-01-30T08:00:14.944Z,2.78
2023-01-30T08:02:42.164Z,2.72
2023-01-30T08:05:09.610Z,3.22
2023-01-30T08:07:36.771Z,2.78
2023-01-30T08:10:04.444Z,2.80
2023-01-30T08:12:31.716Z,2.97
2023-01-30T08:14:58.694Z,3.08
2023-01-30T08:17:25.849Z,3.60
2023-01-30T08:19:52.825Z,3.17
2023-01-30T08:22:19.937Z,2.70
2023-01-30T08:24:46.846Z,2.90
2023-01-30T08:27:13.810Z,2.90
2023-01-30T08:29:40.716Z,3.28
2023-01-30T08:32:07.663Z,3.25
2023-01-30T08:34:34.712Z,3.15
2023-01-30T08:37:02.014Z,3.10
2023-01-30T08:39:29.277Z,2.30
2023-01-30T08:41:56.283Z,2.67
2023-01-30T08:44:23.317Z,2.33
2023-01-30T08:46:50.335Z,3.20
2023-01-30T08:49:17.378Z,2.83
2023-01-30T08:51:44.401Z,2.97
2023-01-30T08:54:11.388Z,2.85
2023-01-30T08:56:38.351Z,3.13
2023-01-30T08:59:06.000Z,2.67
2023-01-30T09:01:33.140Z,3.03
2023-01-30T09:04:00.102Z,2.83
2023-01-30T09:06:27.096Z,2.50
2023-01-30T09:08:54.176Z,2.50
2023-01-30T09:11:21.176Z,2.03
2023-01-30T09:13:49.789Z,3.78
2023-01-30T09:16:16.975Z,2.70
2023-01-30T09:18:44.995Z,3.20
2023-01-30T09:21:13.328Z,2.83
2023-01-30T09:23:40.471Z,3.28
2023-01-30T09:26:07.601Z,2.58
2023-01-30T09:28:35.333Z,2.60
2023-01-30T09:31:03.285Z,2.45
2023-01-30T09:33:30.507Z,2.47
2023-01-30T09:35:57.580Z,2.22
2023-01-30T09:38:24.579Z,2.58
2023-01-30T09:40:59.958Z,2.67
2023-01-30T09:44:04.488Z,2.33
2023-01-30T09:47:13.772Z,2.60
2023-01-30T09:49:55.428Z,2.88
2023-01-30T09:52:52.343Z,2.55
2023-01-30T09:55:23.284Z,2.80
2023-01-30T09:57:52.361Z,2.22
2023-01-30T10:00:39.629Z,2.28
2023-01-30T10:03:09.272Z,2.60
2023-01-30T10:05:47.262Z,2.28
2023-01-30T10:08:19.741Z,2.75
2023-01-30T10:11:09.667Z,1.90
2023-01-30T10:13:57.460Z,2.72
2023-01-30T10:16:30.782Z,2.80
2023-01-30T10:19:16.120Z,2.67
2023-01-30T10:22:04.073Z,2.58
2023-01-30T10:24:46.590Z,3.30
2023-01-30T10:27:16.692Z,2.10
2023-01-30T10:29:49.816Z,3.38
2023-01-30T10:32:32.220Z,2.88
2023-01-30T10:35:06.937Z,2.42
2023-01-30T10:37:45.874Z,2.88
2023-01-30T10:40:44.900Z,2.60
2023-01-30T10:43:26.018Z,1.95
2023-01-30T10:46:13.213Z,2.33
2023-01-30T10:48:45.973Z,2.38
2023-01-30T10:51:40.878Z,2.42
2023-01-30T10:54:34.362Z,3.10
2023-01-30T10:57:16.889Z,2.80
2023-01-30T10:59:56.427Z,2.30
2023-01-30T11:02:25.984Z,2.70
2023-01-30T11:05:03.400Z,2.33
2023-01-30T11:07:34.220Z,3.03
2023-01-30T11:10:01.794Z,2.22
2023-01-30T11:12:28.713Z,2.80
2023-01-30T11:14:56.543Z,2.92
2023-01-30T11:17:30.156Z,2.30
2023-01-30T11:20:01.850Z,2.47
2023-01-30T11:22:31.199Z,2.55
2023-01-30T11:25:16.292Z,2.20
2023-01-30T11:27:51.419Z,3.47
2023-01-30T11:30:21.305Z,2.35
2023-01-30T11:32:49.941Z,2.00
2023-01-30T11:35:30.020Z,2.63
2023-01-30T11:38:21.438Z,2.22
2023-01-30T11:40:49.619Z,2.97
2023-01-30T11:43:16.604Z,2.50
2023-01-30T11:45:48.946Z,2.40
2023-01-30T11:48:33.485Z,2.95
2023-01-30T11:51:09.517Z,2.92
2023-01-30T11:53:50.956Z,2.45
2023-01-30T11:56:21.775Z,3.08
2023-01-30T11:58:58.879Z,2.33
2023-01-30T12:01:31.844Z,2.85
2023-01-30T12:03:59.984Z,2.53
2023-01-30T12:06:39.944Z,2.38
2023-01-30T12:09:30.353Z,2.47
2023-01-30T12:11:57.422Z,2.63
2023-01-30T12:14:38.753Z,2.47
2023-01-30T12:17:21.664Z,2.30
2023-01-30T12:20:15.035Z,3.00
2023-01-30T12:22:53.804Z,2.47
2023-01-30T12:25:28.444Z,3.22
2023-01-30T12:28:10.164Z,2.38
2023-01-30T12:30:51.341Z,2.30
2023-01-30T12:33:19.497Z,3.58
2023-01-30T12:35:55.922Z,3.28
2023-01-30T12:38:55.909Z,2.88
2023-01-30T12:41:28.313Z,2.90
2023-01-30T12:44:40.052Z,2.25
2023-01-30T12:47:43.761Z,2.47
2023-01-30T12:50:23.259Z,2.75
2023-01-30T12:53:11.865Z,2.50
2023-01-30T12:56:05.039Z,3.20
2023-01-30T12:58:50.181Z,2.50
2023-01-30T13:01:45.089Z,2.95
2023-01-30T13:04:51.160Z,2.78
2023-01-30T13:07:26.372Z,2.25
2023-01-30T13:10:33.526Z,2.70
2023-01-30T13:13:32.198Z,2.85
2023-01-30T13:16:34.031Z,1.92
2023-01-30T13:19:25.523Z,3.00
2023-01-30T13:22:39.450Z,2.67
2023-01-30T13:25:31.642Z,2.75
2023-01-30T13:28:09.737Z,2.70
2023-01-30T13:30:36.911Z,3.33
2023-01-30T13:33:11.854Z,2.50
2023-01-30T13:35:54.524Z,2.58
2023-01-30T13:38:26.164Z,2.95
2023-01-30T13:41:00.374Z,2.90
2023-01-30T13:43:33.458Z,3.05
2023-01-30T13:46:06.837Z,2.90
2023-01-30T13:48:48.713Z,2.53
2023-01-30T13:51:43.190Z,2.58
2023-01-30T13:54:22.393Z,3.08
2023-01-30T13:56:53.617Z,2.78
2023-01-30T13:59:36.492Z,3.03
2023-01-30T14:02:04.029Z,2.95
2023-01-30T14:04:38.679Z,2.67
2023-01-30T14:07:39.831Z,3.15
2023-01-30T14:10:09.535Z,2.30
2023-01-30T14:12:39.167Z,2.58
2023-01-30T14:15:14.821Z,3.00
2023-01-30T14:18:00.588Z,3.30
2023-01-30T14:20:29.605Z,2.45
2023-01-30T14:23:03.539Z,2.67
2023-01-30T14:25:30.734Z,2.45
2023-01-30T14:28:00.731Z,2.42
2023-01-30T14:30:47.816Z,2.70
2023-01-30T14:33:23.434Z,2.80
2023-01-30T14:36:02.688Z,3.15
2023-01-30T14:38:33.555Z,1.83
2023-01-30T14:41:00.471Z,3.45
2023-01-30T14:43:41.471Z,2.47
2023-01-30T14:46:21.184Z,2.55
2023-01-30T14:48:51.980Z,3.03
2023-01-30T14:51:37.155Z,2.58
2023-01-30T14:54:17.114Z,2.47
2023-01-30T14:56:44.240Z,2.40
2023-01-30T14:59:17.346Z,3.08
2023-01-30T15:02:05.621Z,2.70
2023-01-30T15:05:05.887Z,3.35
2023-01-30T15:07:38.438Z,2.33
2023-01-30T15:10:21.129Z,3.22
2023-01-30T15:12:48.227Z,2.67
2023-01-30T15:15:15.495Z,2.83
2023-01-30T15:18:02.020Z,3.25
2023-01-30T15:20:49.774Z,2.85
2023-01-30T15:23:42.365Z,3.67
2023-01-30T15:26:16.379Z,3.15
2023-01-30T15:29:20.319Z,2.70
2023-01-30T15:32:14.881Z,3.58
2023-01-30T15:34:53.457Z,2.80
2023-01-30T15:37:34.284Z,2.60
2023-01-30T15:40:16.212Z,3.10
2023-01-30T15:43:01.211Z,3.25
2023-01-30T15:45:52.857Z,2.90
2023-01-30T15:48:48.702Z,2.92
2023-01-30T15:51:19.356Z,2.90
2023-01-30T15:53:48.038Z,2.85
2023-01-30T15:56:29.602Z,3.00
2023-01-30T15:59:00.222Z,2.92
2023-01-30T16:01:27.487Z,2.85
2023-01-30T16:03:55.041Z,3.00
2023-01-30T16:06:37.970Z,3.33
2023-01-30T16:09:22.748Z,2.97
2023-01-30T16:11:50.435Z,3.47
2023-01-30T16:14:22.271Z,3.42
2023-01-30T16:17:06.146Z,2.90
2023-01-30T16:19:35.681Z,3.50
2023-01-30T16:22:15.429Z,3.08
2023-01-30T16:24:47.395Z,3.55
2023-01-30T16:27:29.595Z,3.75
2023-01-30T16:30:00.524Z,4.20
2023-01-30T16:32:30.657Z,3.03
2023-01-30T16:35:30.890Z,3.67
2023-01-30T16:38:00.164Z,3.50
2023-01-30T16:40:46.661Z,3.83
2023-01-30T16:43:23.326Z,3.38
2023-01-30T16:45:53.443Z,3.28
2023-01-30T16:48:21.684Z,3.05
2023-01-30T16:50:59.846Z,3.40
2023-01-30T16:53:29.668Z,3.65
2023-01-30T16:55:59.487Z,3.22
2023-01-30T16:58:32.524Z,3.67
2023-01-30T17:01:08.393Z,3.35
2023-01-30T17:03:44.088Z,3.78
2023-01-30T17:06:23.705Z,4.57
2023-01-30T17:08:54.252Z,4.93
2023-01-30T17:11:37.712Z,5.75
2023-01-30T17:14:26.491Z,4.28
2023-01-30T17:17:19.787Z,4.90
2023-01-30T17:19:48.123Z,5.30
2023-01-30T17:22:20.729Z,4.32
2023-01-30T17:24:47.822Z,4.80
2023-01-30T17:27:16.128Z,4.38
2023-01-30T17:29:43.833Z,4.68
2023-01-30T17:32:15.018Z,5.07
2023-01-30T17:34:42.543Z,4.50
2023-01-30T17:37:24.395Z,5.20
2023-01-30T17:39:51.345Z,5.50
2023-01-30T17:42:21.024Z,4.53
2023-01-30T17:44:48.078Z,5.95
2023-01-30T17:47:15.103Z,4.47
2023-01-30T17:49:42.163Z,5.07
2023-01-30T17:52:09.355Z,5.22
2023-01-30T17:54:36.335Z,4.63
2023-01-30T17:57:06.332Z,6.32
2023-01-30T17:59:33.533Z,5.82
2023-01-30T18:02:00.631Z,8.27
2023-01-30T18:04:28.263Z,5.95
2023-01-30T18:07:03.563Z,5.60
2023-01-30T18:09:31.105Z,6.13
2023-01-30T18:11:58.368Z,4.95
2023-01-30T18:14:25.387Z,4.97
2023-01-30T18:16:52.555Z,4.40
2023-01-30T18:19:24.276Z,5.43
2023-01-30T18:21:51.615Z,5.57
2023-01-30T18:24:19.499Z,5.90
2023-01-30T18:26:47.231Z,5.50
2023-01-30T18:29:14.297Z,8.90
2023-01-30T18:31:41.702Z,7.80
2023-01-30T18:34:11.394Z,8.93
2023-01-30T18:36:38.981Z,9.13
2023-01-30T18:39:06.790Z,8.75
2023-01-30T18:41:35.351Z,6.97
2023-01-30T18:44:05.049Z,6.70
2023-01-30T18:46:33.413Z,6.20
2023-01-30T18:49:00.824Z,6.90
2023-01-30T18:51:30.420Z,9.32
2023-01-30T18:53:58.067Z,8.93
2023-01-30T18:56:34.486Z,9.30
2023-01-30T18:59:04.340Z,7.82
2023-01-30T19:01:35.590Z,7.70
2023-01-30T19:04:04.251Z,8.68
2023-01-30T19:06:31.505Z,8.48
2023-01-30T19:08:58.479Z,7.90
2023-01-30T19:11:44.575Z,10.57
2023-01-30T19:14:11.756Z,9.55
2023-01-30T19:16:39.564Z,8.75
2023-01-30T19:19:08.273Z,7.97
2023-01-30T19:21:36.163Z,7.95
2023-01-30T19:24:06.617Z,7.60
2023-01-30T19:26:34.375Z,7.78
2023-01-30T19:29:01.302Z,6.97
2023-01-30T19:31:28.515Z,6.43
2023-01-30T19:33:58.456Z,5.68
2023-01-30T19:36:27.378Z,6.03
2023-01-30T19:38:54.946Z,6.72
2023-01-30T19:41:30.211Z,6.40
2023-01-30T19:43:59.283Z,6.90
2023-01-30T19:46:28.869Z,6.30
2023-01-30T19:48:56.260Z,6.57
2023-01-30T19:51:28.752Z,5.90
2023-01-30T19:54:01.345Z,6.40
2023-01-30T19:56:30.233Z,6.18
2023-01-30T19:58:58.866Z,6.82
2023-01-30T20:01:29.865Z,6.13
2023-01-30T20:03:57.849Z,6.80
2023-01-30T20:06:31.724Z,7.30
2023-01-30T20:09:01.740Z,6.70
2023-01-30T20:11:29.458Z,7.22
2023-01-30T20:13:56.986Z,7.13
2023-01-30T20:16:27.126Z,7.00
2023-01-30T20:19:02.050Z,7.43
2023-01-30T20:21:30.715Z,6.35
2023-01-30T20:23:58.310Z,6.97
2023-01-30T20:26:29.505Z,7.15
2023-01-30T20:28:57.312Z,6.90
2023-01-30T20:31:27.091Z,7.10
2023-01-30T20:33:56.717Z,6.22
2023-01-30T20:36:26.557Z,6.57
2023-01-30T20:38:55.404Z,7.38
2023-01-30T20:41:24.742Z,7.90
2023-01-30T20:43:54.403Z,5.65
2023-01-30T20:46:24.045Z,7.00
2023-01-30T20:48:54.200Z,7.05
2023-01-30T20:51:24.362Z,7.05
2023-01-30T20:53:52.591Z,7.03
2023-01-30T20:56:20.873Z,7.20
2023-01-30T20:58:48.041Z,6.70
2023-01-30T21:01:18.632Z,6.45
2023-01-30T21:03:53.457Z,6.57
2023-01-30T21:06:41.699Z,5.40
2023-01-30T21:09:17.655Z,6.68
2023-01-30T21:11:45.155Z,5.75
2023-01-30T21:14:12.783Z,5.90
2023-01-30T21:16:40.095Z,7.13
2023-01-30T21:19:11.137Z,6.95
2023-01-30T21:21:59.477Z,6.10
2023-01-30T21:24:28.840Z,6.30
2023-01-30T21:26:56.834Z,7.75
2023-01-30T21:29:25.606Z,9.02
2023-01-30T21:31:53.059Z,8.68
2023-01-30T21:34:20.327Z,7.40
2023-01-30T21:37:06.171Z,7.75
2023-01-30T21:39:51.554Z,8.98
2023-01-30T21:42:37.154Z,7.97
2023-01-30T21:45:06.604Z,7.55
2023-01-30T21:47:33.629Z,7.70
2023-01-30T21:50:00.668Z,8.23
2023-01-30T21:52:27.893Z,8.15
2023-01-30T21:54:55.193Z,7.78
2023-01-30T21:57:22.164Z,7.30
2023-01-30T21:59:49.059Z,8.35
2023-01-30T22:02:16.025Z,7.35
2023-01-30T22:04:42.988Z,7.07
2023-01-30T22:07:09.955Z,8.45
2023-01-30T22:09:37.153Z,6.65
2023-01-30T22:12:04.728Z,6.63
2023-01-30T22:14:33.248Z,7.90
2023-01-30T22:17:00.327Z,6.53
2023-01-30T22:19:27.337Z,7.13
2023-01-30T22:21:54.318Z,7.47
2023-01-30T22:24:21.347Z,7.22
2023-01-30T22:26:48.361Z,7.18
2023-01-30T22:29:18.037Z,6.65
2023-01-30T22:31:45.245Z,6.65
2023-01-30T22:34:12.934Z,7.18
2023-01-30T22:36:39.896Z,6.55
2023-01-30T22:39:06.918Z,6.15
2023-01-30T22:41:36.230Z,6.22
2023-01-30T22:44:07.599Z,7.13
2023-01-30T22:46:37.529Z,6.40
2023-01-30T22:49:06.468Z,6.78
2023-01-30T22:51:36.252Z,6.28
2023-01-30T22:54:06.123Z,6.43
2023-01-30T22:56:41.743Z,6.45
2023-01-30T22:59:09.541Z,6.00
2023-01-30T23:01:42.119Z,6.00
2023-01-30T23:04:20.495Z,6.47
2023-01-30T23:06:48.960Z,5.90
2023-01-30T23:09:18.789Z,5.65
2023-01-30T23:12:09.187Z,6.53
2023-01-30T23:14:37.110Z,5.63
2023-01-30T23:17:24.597Z,6.25
2023-01-30T23:19:51.608Z,5.68
2023-01-30T23:22:18.932Z,5.80
2023-01-30T23:24:45.884Z,5.82
2023-01-30T23:27:12.788Z,6.30
2023-01-30T23:29:40.205Z,6.32
2023-01-30T23:32:07.183Z,5.97
2023-01-30T23:34:34.279Z,5.60
2023-01-30T23:37:01.312Z,6.38
2023-01-30T23:39:28.327Z,5.80
2023-01-30T23:41:55.296Z,5.97
2023-01-30T23:44:22.361Z,4.95
2023-01-30T23:46:49.315Z,6.13
2023-01-30T23:49:16.652Z,5.78
2023-01-30T23:51:44.915Z,5.72
2023-01-30T23:54:13.640Z,6.75
2023-01-30T23:56:43.372Z,5.60
2023-01-30T23:59:11.331Z,5.80
